Time;durP1;ratioP1;P1;durP2;ratioP2;P2;SDS_P1;SDS_P2;PMS_P1;PMS_P2;Temp;Humidity;BMP_temperature;BMP_pressure;BME280_temperature;BME280_humidity;BME280_pressure;Samples;Min_cycle;Max_cycle;Signal;HPM_P1;HPM_P2
2022/11/15 00:00:08;;;;;;;8.68;5.32;;;5.40;90.10;;;;;;5054161;28;20194;-67
2022/11/15 00:02:34;;;;;;;7.38;5.70;;;5.40;89.90;;;;;;5049492;28;20680;-67
2022/11/15 00:05:04;;;;;;;7.57;5.90;;;5.40;89.60;;;;;;5052968;28;20198;-67
2022/11/15 00:07:31;;;;;;;10.13;7.20;;;5.40;89.60;;;;;;5054133;28;20198;-67
2022/11/15 00:09:58;;;;;;;8.05;5.88;;;5.40;89.50;;;;;;5053273;28;20649;-67
2022/11/15 00:12:25;;;;;;;7.00;5.90;;;5.40;89.50;;;;;;5053826;28;20229;-66
2022/11/15 00:14:52;;;;;;;8.13;6.07;;;5.40;89.20;;;;;;5054256;28;20189;-66
2022/11/15 00:17:19;;;;;;;9.98;5.85;;;5.30;88.50;;;;;;5055794;28;20622;-66
2022/11/15 00:19:46;;;;;;;7.80;6.18;;;5.30;87.90;;;;;;5055369;28;20541;-67
2022/11/15 00:22:15;;;;;;;6.30;4.38;;;5.20;88.00;;;;;;5055076;28;20209;-67
2022/11/15 00:24:42;;;;;;;6.47;5.60;;;5.30;87.70;;;;;;5055213;28;20228;-67
2022/11/15 00:27:09;;;;;;;9.40;4.70;;;5.10;87.20;;;;;;5055499;28;20201;-67
2022/11/15 00:29:38;;;;;;;8.05;5.63;;;5.00;89.00;;;;;;5055078;28;20191;-68
2022/11/15 00:32:05;;;;;;;7.93;5.20;;;4.90;89.70;;;;;;5055090;28;20218;-66
2022/11/15 00:34:32;;;;;;;7.47;5.78;;;5.00;90.00;;;;;;5054796;28;20197;-67
2022/11/15 00:36:59;;;;;;;7.72;5.45;;;4.90;89.60;;;;;;5055622;28;20309;-67
2022/11/15 00:39:28;;;;;;;11.68;6.20;;;4.80;89.50;;;;;;5055179;28;20190;-68
2022/11/15 00:41:56;;;;;;;7.55;5.65;;;4.80;89.50;;;;;;5054316;28;20237;-68
2022/11/15 00:44:23;;;;;;;6.22;4.35;;;4.80;89.50;;;;;;5055501;28;20543;-67
2022/11/15 00:46:50;;;;;;;6.85;5.80;;;4.90;90.00;;;;;;5054539;28;20190;-67
2022/11/15 00:49:17;;;;;;;7.70;5.80;;;4.90;90.10;;;;;;5054642;28;20186;-67
2022/11/15 00:51:44;;;;;;;6.10;5.32;;;4.90;90.20;;;;;;5055144;28;20265;-68
2022/11/15 00:54:11;;;;;;;7.15;5.30;;;5.00;89.90;;;;;;5054508;28;20767;-66
2022/11/15 00:56:40;;;;;;;6.60;5.00;;;5.00;89.90;;;;;;5055021;28;20195;-67
2022/11/15 00:59:07;;;;;;;8.25;5.22;;;4.90;89.10;;;;;;5054590;28;20217;-67
2022/11/15 01:01:34;;;;;;;7.10;4.65;;;4.80;88.90;;;;;;5054564;28;20190;-67
2022/11/15 01:04:01;;;;;;;6.05;4.60;;;4.80;88.30;;;;;;5054187;28;20218;-67
2022/11/15 01:06:28;;;;;;;5.45;3.70;;;4.70;88.30;;;;;;5054824;28;20202;-67
2022/11/15 01:08:55;;;;;;;5.97;4.55;;;4.70;89.10;;;;;;5054403;28;20706;-67
2022/11/15 01:11:22;;;;;;;6.03;4.70;;;4.80;90.00;;;;;;5054424;28;20241;-67
2022/11/15 01:13:51;;;;;;;6.00;4.55;;;4.80;90.20;;;;;;5054492;28;20190;-66
2022/11/15 01:16:19;;;;;;;4.68;3.55;;;4.80;89.90;;;;;;5054720;28;20224;-67
2022/11/15 01:18:47;;;;;;;6.05;4.55;;;4.80;89.00;;;;;;5054017;28;20622;-67
2022/11/15 01:21:16;;;;;;;7.13;4.18;;;4.80;88.80;;;;;;5054539;28;20194;-66
2022/11/15 01:23:43;;;;;;;6.10;4.22;;;4.80;88.20;;;;;;5053603;28;20229;-67
2022/11/15 01:26:13;;;;;;;4.15;3.30;;;4.80;87.90;;;;;;5054232;28;20195;-67
2022/11/15 01:28:42;;;;;;;8.18;4.57;;;4.80;87.90;;;;;;5054310;28;20199;-67
2022/11/15 01:31:14;;;;;;;4.30;3.60;;;4.70;86.60;;;;;;5054145;28;20653;-69
2022/11/15 01:33:41;;;;;;;6.53;4.15;;;4.70;86.50;;;;;;5054077;28;20254;-67
2022/11/15 01:39:30;;;;;;;6.68;4.13;;;4.60;86.20;;;;;;5050542;28;20194;-67
2022/11/15 01:41:57;;;;;;;6.68;4.45;;;4.60;85.80;;;;;;5054109;28;20528;-67
2022/11/15 01:44:41;;;;;;;7.65;4.40;;;4.60;85.60;;;;;;5053430;28;20190;-67
2022/11/15 01:47:14;;;;;;;6.15;4.00;;;4.50;86.00;;;;;;5054384;28;20248;-67
2022/11/15 01:49:47;;;;;;;7.30;4.20;;;4.50;85.90;;;;;;5053922;28;20187;-67
2022/11/15 01:52:18;;;;;;;6.53;3.67;;;4.40;87.10;;;;;;5054398;28;20225;-68
2022/11/15 01:54:46;;;;;;;6.68;4.15;;;4.20;88.90;;;;;;5052437;28;20182;-67
2022/11/15 01:57:14;;;;;;;7.45;4.45;;;4.10;90.10;;;;;;5054300;28;20652;-67
2022/11/15 01:59:44;;;;;;;7.60;5.25;;;4.10;90.40;;;;;;5053342;28;20183;-66
2022/11/15 02:02:13;;;;;;;6.22;3.88;;;4.20;90.50;;;;;;5054316;28;20608;-67
2022/11/15 02:04:42;;;;;;;6.18;4.03;;;4.20;90.80;;;;;;5052948;28;20226;-67
2022/11/15 02:07:12;;;;;;;7.60;3.78;;;4.20;91.10;;;;;;5053690;28;20226;-66
2022/11/15 02:09:40;;;;;;;9.48;4.32;;;4.30;91.10;;;;;;5052428;28;20198;-66
2022/11/15 02:12:09;;;;;;;5.32;3.72;;;4.30;91.20;;;;;;5053593;28;20296;-67
2022/11/15 02:14:38;;;;;;;7.78;4.45;;;4.40;91.20;;;;;;5052998;28;20543;-67
2022/11/15 02:17:24;;;;;;;8.35;4.15;;;4.40;90.80;;;;;;5053392;28;20281;-67
2022/11/15 02:20:25;;;;;;;8.25;4.68;;;4.40;90.50;;;;;;5037131;28;20269;-67
2022/11/15 02:23:12;;;;;;;4.97;3.60;;;4.40;90.50;;;;;;5052654;28;20262;-68
2022/11/15 02:25:43;;;;;;;5.32;3.80;;;4.40;91.30;;;;;;5053857;28;20225;-67
2022/11/15 02:28:53;;;;;;;5.53;4.18;;;4.40;91.90;;;;;;5052540;28;20617;-67
2022/11/15 02:31:28;;;;;;;5.70;3.33;;;4.40;92.00;;;;;;5052844;28;20240;-67
2022/11/15 02:34:04;;;;;;;4.82;3.92;;;4.40;92.10;;;;;;5053825;28;20190;-67
2022/11/15 02:36:41;;;;;;;6.20;3.35;;;4.30;91.50;;;;;;5052851;28;20632;-67
2022/11/15 02:39:14;;;;;;;5.00;3.95;;;4.20;91.60;;;;;;5053371;28;20217;-67
2022/11/15 02:41:48;;;;;;;5.70;3.75;;;4.10;92.60;;;;;;5053039;28;20190;-67
2022/11/15 02:44:21;;;;;;;4.85;3.17;;;4.10;93.80;;;;;;5053882;28;20578;-67
2022/11/15 02:49:40;;;;;;;6.57;3.25;;;4.10;95.70;;;;;;5052978;28;20274;-66
2022/11/15 02:52:07;;;;;;;4.88;3.38;;;4.10;97.30;;;;;;5052714;28;20198;-66
2022/11/15 02:54:35;;;;;;;6.15;3.58;;;4.10;97.20;;;;;;5051299;28;20591;-67
2022/11/15 02:57:05;;;;;;;5.32;3.58;;;4.10;97.70;;;;;;5052943;28;20289;-67
2022/11/15 03:00:04;;;;;;;4.28;2.22;;;4.20;98.00;;;;;;5052550;28;20218;-67
2022/11/15 03:02:58;;;;;;;5.15;3.00;;;4.10;98.80;;;;;;5037972;28;20232;-67
2022/11/15 03:05:34;;;;;;;9.02;3.92;;;4.20;99.20;;;;;;5052280;28;20276;-68
2022/11/15 03:08:07;;;;;;;4.95;3.05;;;4.20;98.80;;;;;;5053157;28;20190;-67
2022/11/15 03:10:42;;;;;;;4.32;3.17;;;4.20;98.50;;;;;;5052151;28;20186;-67
2022/11/15 03:13:17;;;;;;;3.80;2.80;;;4.30;98.40;;;;;;5052794;28;20194;-67
2022/11/15 03:15:51;;;;;;;6.20;4.07;;;4.30;98.70;;;;;;5051812;28;20213;-67
2022/11/15 03:18:24;;;;;;;4.15;2.95;;;4.30;98.50;;;;;;5053035;28;20222;-67
2022/11/15 03:20:51;;;;;;;4.70;3.05;;;4.30;98.40;;;;;;5051207;28;20194;-67
2022/11/15 03:23:18;;;;;;;4.68;3.35;;;4.20;97.50;;;;;;5052884;28;20248;-67
2022/11/15 03:25:49;;;;;;;3.70;2.67;;;4.10;96.70;;;;;;5052039;28;20190;-67
2022/11/15 03:28:22;;;;;;;4.68;3.38;;;4.00;96.60;;;;;;5052938;28;20229;-66
2022/11/15 03:30:50;;;;;;;4.47;2.75;;;3.90;97.00;;;;;;5051458;28;20726;-68
2022/11/15 03:33:19;;;;;;;4.70;2.80;;;3.90;97.20;;;;;;5052546;28;20260;-67
2022/11/15 03:35:47;;;;;;;4.85;3.30;;;3.90;97.80;;;;;;5051942;28;20225;-67
2022/11/15 03:38:20;;;;;;;6.05;3.45;;;3.80;97.80;;;;;;5052409;28;20253;-67
2022/11/15 03:40:54;;;;;;;4.18;3.20;;;3.70;98.10;;;;;;5051935;28;20273;-67
2022/11/15 03:43:31;;;;;;;4.95;3.45;;;3.60;98.30;;;;;;5051099;28;20511;-69
2022/11/15 03:46:02;;;;;;;8.60;3.28;;;3.60;98.20;;;;;;5043823;28;20189;-67
2022/11/15 03:48:36;;;;;;;5.60;3.03;;;3.60;98.30;;;;;;5051523;28;20194;-67
2022/11/15 03:51:04;;;;;;;4.40;2.90;;;3.50;98.80;;;;;;5052492;28;20646;-66
2022/11/15 03:53:31;;;;;;;6.63;4.88;;;3.40;99.20;;;;;;5051321;28;20244;-67
2022/11/15 03:55:58;;;;;;;10.25;6.38;;;3.40;99.30;;;;;;5052642;28;20194;-67
2022/11/15 03:58:25;;;;;;;7.55;6.03;;;3.40;99.60;;;;;;5052435;28;20218;-68
2022/11/15 04:00:52;;;;;;;10.25;6.30;;;3.40;99.90;;;;;;5050665;28;20722;-67
2022/11/15 04:03:19;;;;;;;11.68;7.43;;;3.30;90.70;;;;;;5052361;28;20272;-67
2022/11/15 04:05:48;;;;;;;7.78;3.95;;;3.40;90.60;;;;;;5050914;28;20182;-67
2022/11/15 04:08:15;;;;;;;5.40;3.80;;;3.30;90.60;;;;;;5051632;28;20320;-66
2022/11/15 04:10:41;;;;;;;6.75;3.80;;;3.40;90.70;;;;;;5051500;28;20186;-67
2022/11/15 04:13:08;;;;;;;6.38;3.85;;;3.40;90.70;;;;;;5051607;28;20174;-66
2022/11/15 04:15:36;;;;;;;5.53;3.90;;;3.40;90.90;;;;;;5052186;28;20281;-66
2022/11/15 04:18:03;;;;;;;5.35;3.00;;;3.40;91.00;;;;;;5051824;28;20241;-67
2022/11/15 04:26:06;;;;;;;5.35;3.63;;;3.40;91.60;;;;;;5052245;28;20213;-67
2022/11/15 04:28:34;;;;;;;4.55;3.30;;;3.50;91.20;;;;;;5051458;28;20274;-67
2022/11/15 04:31:01;;;;;;;4.45;3.20;;;3.50;91.30;;;;;;5052136;28;20190;-67
2022/11/15 04:33:28;;;;;;;6.88;4.00;;;3.50;91.10;;;;;;5054947;28;20211;-67
2022/11/15 04:38:40;;;;;;;38.40;29.13;;;3.40;91.10;;;;;;5054962;28;20225;-66
2022/11/15 04:41:07;;;;;;;24.27;21.25;;;3.40;91.40;;;;;;5055771;28;20190;-66
2022/11/15 04:43:34;;;;;;;22.40;15.25;;;3.40;91.70;;;;;;5054841;28;20182;-66
2022/11/15 04:46:01;;;;;;;17.73;10.45;;;3.40;91.40;;;;;;5055575;28;20230;-67
2022/11/15 04:48:28;;;;;;;17.33;7.65;;;3.40;91.80;;;;;;5054724;28;20264;-66
2022/11/15 04:50:55;;;;;;;4.80;3.78;;;3.40;91.10;;;;;;5055673;28;20252;-67
2022/11/15 04:53:22;;;;;;;5.28;3.40;;;3.40;91.00;;;;;;5054627;28;20178;-67
2022/11/15 04:55:50;;;;;;;4.65;3.50;;;3.30;90.90;;;;;;5055764;28;20247;-67
2022/11/15 04:58:17;;;;;;;6.53;4.15;;;3.30;90.70;;;;;;5054258;28;20249;-68
2022/11/15 05:00:44;;;;;;;4.43;3.30;;;3.20;90.50;;;;;;5055550;28;20248;-67
2022/11/15 05:05:55;;;;;;;4.60;3.60;;;3.20;90.90;;;;;;5054682;28;20304;-68
2022/11/15 05:08:22;;;;;;;11.00;4.55;;;3.30;91.10;;;;;;5055148;28;20240;-67
2022/11/15 05:10:51;;;;;;;5.20;3.70;;;3.30;91.00;;;;;;5054871;28;20190;-70
2022/11/15 05:13:18;;;;;;;4.72;3.53;;;3.30;91.10;;;;;;5055772;28;20237;-67
2022/11/15 05:15:45;;;;;;;3.63;2.55;;;3.20;90.60;;;;;;5055114;28;20672;-66
2022/11/15 05:18:12;;;;;;;6.57;3.05;;;3.20;90.20;;;;;;5054109;28;20198;-69
2022/11/15 05:20:39;;;;;;;5.38;3.78;;;3.20;90.30;;;;;;5055039;28;21146;-66
2022/11/15 05:23:06;;;;;;;5.65;4.00;;;3.20;90.60;;;;;;5055055;28;20684;-67
2022/11/15 05:25:33;;;;;;;5.03;3.33;;;3.30;90.80;;;;;;5054254;28;20236;-66
2022/11/15 05:28:01;;;;;;;3.92;2.80;;;3.30;90.90;;;;;;5054936;28;20237;-66
2022/11/15 05:30:28;;;;;;;4.97;3.13;;;3.30;91.20;;;;;;5054351;28;20187;-67
2022/11/15 05:32:55;;;;;;;3.53;2.60;;;3.20;91.40;;;;;;5055067;28;20584;-66
2022/11/15 05:35:31;;;;;;;5.13;3.33;;;3.20;91.30;;;;;;5054266;28;20210;-67
2022/11/15 05:37:59;;;;;;;4.85;3.03;;;3.20;91.40;;;;;;5054485;28;20225;-67
2022/11/15 05:40:26;;;;;;;4.88;3.90;;;3.20;91.40;;;;;;5034954;28;20187;-66
2022/11/15 05:42:53;;;;;;;6.93;4.63;;;3.30;91.20;;;;;;5034235;28;20329;-67
2022/11/15 05:45:22;;;;;;;3.95;2.95;;;3.30;91.10;;;;;;5053231;28;20222;-67
2022/11/15 05:47:50;;;;;;;5.10;3.30;;;3.20;90.20;;;;;;5054815;28;20569;-66
2022/11/15 05:50:19;;;;;;;5.28;3.55;;;3.10;90.50;;;;;;5054788;28;20260;-66
2022/11/15 05:52:47;;;;;;;5.30;3.67;;;3.10;90.60;;;;;;5054470;28;20675;-67
2022/11/15 05:55:14;;;;;;;6.53;3.35;;;3.10;90.20;;;;;;5053638;28;20190;-66
2022/11/15 05:57:41;;;;;;;4.93;3.13;;;3.10;89.90;;;;;;5054559;28;20190;-66
2022/11/15 06:00:10;;;;;;;7.18;3.50;;;3.10;89.40;;;;;;5053463;28;20246;-67
2022/11/15 06:02:38;;;;;;;4.00;3.35;;;3.10;89.70;;;;;;5053837;28;20237;-67
2022/11/15 06:05:05;;;;;;;5.15;3.70;;;3.00;89.20;;;;;;5053244;28;20187;-67
2022/11/15 06:07:32;;;;;;;3.97;3.20;;;3.00;88.60;;;;;;5052762;28;20240;-67
2022/11/15 06:09:59;;;;;;;7.13;3.75;;;3.00;89.20;;;;;;5051705;28;20210;-66
2022/11/15 06:12:26;;;;;;;7.38;4.70;;;2.90;89.40;;;;;;5054285;28;20221;-67
2022/11/15 06:14:53;;;;;;;6.63;4.90;;;2.90;89.40;;;;;;5053680;28;20186;-67
2022/11/15 06:17:20;;;;;;;7.15;4.53;;;2.80;89.70;;;;;;5054150;28;20190;-67
2022/11/15 06:19:48;;;;;;;9.70;5.75;;;2.70;89.50;;;;;;5053455;28;20289;-66
2022/11/15 06:22:15;;;;;;;8.80;4.72;;;2.70;89.80;;;;;;5054321;28;20194;-68
2022/11/15 06:24:43;;;;;;;6.47;5.55;;;2.80;90.20;;;;;;5053602;28;20186;-66
2022/11/15 06:27:11;;;;;;;6.85;5.28;;;2.80;90.20;;;;;;5054006;28;20182;-67
2022/11/15 06:29:38;;;;;;;9.77;5.18;;;2.80;90.30;;;;;;5053238;28;20186;-66
2022/11/15 06:32:05;;;;;;;5.70;3.92;;;2.80;90.10;;;;;;5054005;28;20226;-67
2022/11/15 06:34:32;;;;;;;5.93;4.65;;;2.80;90.00;;;;;;5053469;28;20189;-66
2022/11/15 06:37:01;;;;;;;6.88;4.03;;;2.80;90.00;;;;;;5054149;28;20194;-67
2022/11/15 06:39:28;;;;;;;5.60;3.60;;;2.80;89.70;;;;;;5052680;28;20249;-67
2022/11/15 06:41:55;;;;;;;10.40;4.75;;;2.80;90.00;;;;;;5052269;28;20217;-67
2022/11/15 06:44:22;;;;;;;5.07;3.90;;;2.90;90.20;;;;;;5052238;28;20225;-67
2022/11/15 06:46:49;;;;;;;4.35;3.47;;;3.00;90.60;;;;;;5053968;28;20202;-66
2022/11/15 06:49:16;;;;;;;5.18;3.65;;;3.20;90.60;;;;;;5053863;28;20339;-67
2022/11/15 06:51:43;;;;;;;5.80;3.90;;;3.50;90.70;;;;;;5050257;28;20191;-67
2022/11/15 06:54:12;;;;;;;8.05;3.75;;;3.70;90.60;;;;;;5052194;28;20534;-67
2022/11/15 06:56:39;;;;;;;9.38;5.50;;;4.00;90.70;;;;;;5052282;28;20236;-67
2022/11/15 06:59:06;;;;;;;6.50;5.25;;;4.30;90.70;;;;;;5051815;28;20741;-66
2022/11/15 07:01:32;;;;;;;12.75;7.72;;;4.60;90.50;;;;;;5052589;28;20190;-68
2022/11/15 07:03:59;;;;;;;10.30;7.38;;;4.90;90.80;;;;;;5050924;28;20242;-67
2022/11/15 07:06:26;;;;;;;10.90;6.57;;;5.20;90.30;;;;;;5051920;28;20268;-67
2022/11/15 07:08:53;;;;;;;7.10;4.70;;;5.50;88.40;;;;;;5050124;28;20206;-67
2022/11/15 07:11:22;;;;;;;7.53;4.72;;;5.90;87.10;;;;;;5051637;28;20191;-67
2022/11/15 07:13:49;;;;;;;6.30;4.70;;;6.10;82.90;;;;;;5053072;28;20237;-68
2022/11/15 07:16:15;;;;;;;4.90;3.40;;;6.30;83.40;;;;;;5053081;28;20190;-67
2022/11/15 07:18:42;;;;;;;7.18;3.80;;;6.50;81.80;;;;;;5052595;28;20301;-67
2022/11/15 07:21:12;;;;;;;4.72;3.55;;;6.60;79.40;;;;;;5053005;28;20252;-67
2022/11/15 07:23:40;;;;;;;5.18;3.88;;;6.60;78.20;;;;;;5053134;28;20317;-67
2022/11/15 07:26:07;;;;;;;7.18;3.72;;;6.90;78.40;;;;;;5052920;28;20237;-67
2022/11/15 07:28:36;;;;;;;5.10;4.00;;;7.30;76.80;;;;;;5053253;28;20222;-67
2022/11/15 07:31:04;;;;;;;7.68;5.55;;;7.50;76.60;;;;;;5052866;28;20232;-67
2022/11/15 07:33:31;;;;;;;9.68;6.55;;;7.90;78.60;;;;;;5053047;28;20198;-67
2022/11/15 07:36:01;;;;;;;9.27;5.85;;;8.20;77.50;;;;;;5053104;28;20233;-67
2022/11/15 07:38:29;;;;;;;7.53;5.85;;;8.40;73.90;;;;;;5052950;28;20190;-67
2022/11/15 07:41:00;;;;;;;8.00;5.25;;;8.60;73.20;;;;;;5053044;28;20218;-68
2022/11/15 07:43:29;;;;;;;8.80;6.20;;;8.90;73.60;;;;;;5049517;28;20190;-67
2022/11/15 07:45:58;;;;;;;12.23;7.82;;;9.30;73.00;;;;;;5051119;28;20234;-67
2022/11/15 07:48:25;;;;;;;11.02;6.00;;;9.50;69.40;;;;;;5051652;28;20234;-68
2022/11/15 07:50:52;;;;;;;3.60;3.20;;;9.80;68.10;;;;;;5051262;28;20198;-67
2022/11/15 07:53:19;;;;;;;5.13;4.43;;;9.90;65.60;;;;;;5051437;28;20655;-67
2022/11/15 07:55:46;;;;;;;5.45;4.43;;;10.20;62.90;;;;;;5051446;28;20509;-67
2022/11/15 07:58:13;;;;;;;7.93;5.68;;;10.30;61.80;;;;;;5051198;28;20285;-67
2022/11/15 08:00:40;;;;;;;7.20;5.05;;;10.20;61.10;;;;;;5049799;28;20300;-68
2022/11/15 08:03:11;;;;;;;8.73;4.95;;;10.40;62.80;;;;;;5051091;28;20218;-68
2022/11/15 08:05:39;;;;;;;7.47;4.72;;;10.90;61.60;;;;;;5047747;28;20237;-68
2022/11/15 08:08:07;;;;;;;7.30;5.30;;;11.40;59.90;;;;;;5054933;28;20194;-68
2022/11/15 08:10:34;;;;;;;7.82;4.63;;;11.80;59.10;;;;;;5055093;28;20650;-67
2022/11/15 08:13:03;;;;;;;6.50;4.88;;;12.20;58.90;;;;;;5055061;28;20195;-68
2022/11/15 08:15:31;;;;;;;5.63;5.13;;;12.50;57.40;;;;;;5055115;28;20206;-67
2022/11/15 08:17:59;;;;;;;5.80;5.00;;;13.00;57.40;;;;;;5054832;28;20679;-67
2022/11/15 08:20:29;;;;;;;5.75;4.55;;;13.40;56.20;;;;;;5054591;28;20259;-67
2022/11/15 08:22:57;;;;;;;5.32;4.75;;;13.70;54.40;;;;;;5054775;28;20203;-68
2022/11/15 08:25:26;;;;;;;5.43;4.55;;;13.70;53.20;;;;;;5054341;28;20288;-68
2022/11/15 08:27:53;;;;;;;4.03;3.40;;;13.90;53.10;;;;;;5055017;28;20233;-68
2022/11/15 08:30:20;;;;;;;5.70;3.57;;;14.20;52.40;;;;;;5054852;28;20589;-67
2022/11/15 08:32:47;;;;;;;5.70;3.90;;;14.60;51.80;;;;;;5054951;28;20445;-65
2022/11/15 08:35:15;;;;;;;5.40;3.60;;;15.10;51.40;;;;;;5054873;28;20442;-65
2022/11/15 08:37:43;;;;;;;4.83;3.60;;;15.50;51.80;;;;;;5054004;28;20927;-66
2022/11/15 08:40:11;;;;;;;4.10;3.40;;;15.90;49.90;;;;;;5054272;28;20488;-65
2022/11/15 08:42:38;;;;;;;4.70;3.53;;;16.30;48.70;;;;;;5051502;28;20440;-65
2022/11/15 08:45:06;;;;;;;5.53;4.13;;;16.70;48.60;;;;;;5054752;28;20522;-65
2022/11/15 08:47:33;;;;;;;6.87;3.47;;;17.10;47.80;;;;;;5054678;28;20973;-65
2022/11/15 08:50:00;;;;;;;4.83;3.33;;;17.50;46.30;;;;;;5054190;28;20472;-66
2022/11/15 08:52:27;;;;;;;3.60;2.60;;;17.90;44.90;;;;;;5054512;28;20437;-67
2022/11/15 08:54:55;;;;;;;3.07;2.20;;;18.30;44.10;;;;;;5054435;28;20446;-66
2022/11/15 08:57:22;;;;;;;4.20;2.73;;;18.70;42.20;;;;;;5054332;28;20449;-66
2022/11/15 08:59:49;;;;;;;3.20;2.67;;;19.10;41.20;;;;;;5054064;28;20994;-67
2022/11/15 09:02:17;;;;;;;4.10;3.20;;;19.40;40.40;;;;;;5054182;28;20472;-66
2022/11/15 09:04:44;;;;;;;5.40;3.10;;;19.80;39.30;;;;;;5054236;28;20465;-66
2022/11/15 09:07:12;;;;;;;5.10;2.80;;;20.30;39.10;;;;;;5054292;28;20444;-65
2022/11/15 09:09:40;;;;;;;5.77;2.50;;;20.70;38.20;;;;;;5050616;28;20510;-66
2022/11/15 09:12:08;;;;;;;3.97;3.07;;;21.10;37.50;;;;;;5054256;28;20469;-66
2022/11/15 09:14:35;;;;;;;6.00;3.63;;;21.00;35.40;;;;;;5053969;28;20476;-65
2022/11/15 09:17:03;;;;;;;4.20;3.07;;;20.90;36.40;;;;;;5054103;28;20447;-66
2022/11/15 09:19:30;;;;;;;5.90;2.73;;;21.00;36.40;;;;;;5052179;28;20566;-65
2022/11/15 09:21:57;;;;;;;3.70;2.57;;;21.40;36.20;;;;;;5054069;28;20475;-66
2022/11/15 09:24:24;;;;;;;4.37;2.30;;;21.80;36.60;;;;;;5053888;28;20931;-67
2022/11/15 09:26:52;;;;;;;8.37;3.00;;;22.20;36.80;;;;;;5053992;28;20506;-66
2022/11/15 09:29:20;;;;;;;3.73;2.60;;;22.60;34.90;;;;;;5053863;28;20498;-66
2022/11/15 09:31:47;;;;;;;5.63;2.80;;;23.00;34.30;;;;;;5051684;28;20952;-67
2022/11/15 09:34:14;;;;;;;3.77;2.67;;;23.40;34.30;;;;;;5053530;28;20455;-66
2022/11/15 09:36:41;;;;;;;3.67;2.50;;;23.70;33.90;;;;;;5053703;28;20934;-66
2022/11/15 09:39:08;;;;;;;4.40;2.47;;;24.10;32.50;;;;;;5053687;28;20530;-66
2022/11/15 09:41:51;;;;;;;4.07;2.47;;;24.40;32.70;;;;;;5053039;28;20780;-66
2022/11/15 09:44:39;;;;;;;3.87;2.60;;;24.80;30.90;;;;;;5051608;28;20498;-66
2022/11/15 09:47:25;;;;;;;8.23;2.80;;;25.20;30.00;;;;;;5053750;28;20475;-66
2022/11/15 09:49:54;;;;;;;5.27;2.53;;;25.50;30.00;;;;;;5051665;28;20448;-66
2022/11/15 09:52:22;;;;;;;4.00;2.70;;;25.90;30.10;;;;;;5053408;28;20440;-67
2022/11/15 09:54:56;;;;;;;4.27;2.57;;;26.10;29.40;;;;;;5053736;28;20453;-67
2022/11/15 09:57:31;;;;;;;4.73;3.27;;;26.10;28.50;;;;;;5053514;28;20495;-66
2022/11/15 10:00:09;;;;;;;8.47;3.43;;;26.20;29.40;;;;;;5053004;28;20468;-66
2022/11/15 10:02:52;;;;;;;4.33;3.00;;;26.70;29.20;;;;;;5053357;28;20476;-66
2022/11/15 10:05:21;;;;;;;6.30;3.90;;;26.90;29.20;;;;;;5051376;28;20539;-67
2022/11/15 10:08:00;;;;;;;5.50;3.40;;;27.30;28.50;;;;;;5053279;28;20470;-66
2022/11/15 10:10:35;;;;;;;6.90;3.63;;;27.50;27.80;;;;;;5052732;28;20441;-66
2022/11/15 10:13:04;;;;;;;5.50;3.33;;;27.80;27.20;;;;;;5053282;28;20443;-66
2022/11/15 10:15:32;;;;;;;6.20;2.93;;;28.10;26.80;;;;;;5052896;28;20788;-69
2022/11/15 10:18:09;;;;;;;4.40;2.27;;;28.30;25.30;;;;;;5052644;28;20445;-66
2022/11/15 10:20:47;;;;;;;3.40;2.60;;;28.40;24.70;;;;;;5052864;28;20503;-66
2022/11/15 10:23:17;;;;;;;5.50;2.67;;;28.70;24.70;;;;;;5053021;28;20447;-66
2022/11/15 10:25:44;;;;;;;3.17;2.00;;;29.10;25.40;;;;;;5052882;28;20450;-66
2022/11/15 10:28:16;;;;;;;6.77;2.30;;;29.40;23.60;;;;;;5052771;28;22520;-66
2022/11/15 10:30:46;;;;;;;3.90;2.40;;;29.80;24.50;;;;;;5052197;28;20796;-66
2022/11/15 10:33:26;;;;;;;3.60;2.37;;;30.30;23.80;;;;;;5052788;28;20799;-66
2022/11/15 10:36:22;;;;;;;3.10;2.20;;;31.00;23.90;;;;;;5051268;28;20460;-67
2022/11/15 10:38:58;;;;;;;3.60;2.53;;;31.50;22.70;;;;;;5050705;28;20444;-66
2022/11/15 10:41:34;;;;;;;3.77;2.30;;;32.00;22.00;;;;;;5051073;28;20609;-67
2022/11/15 10:44:18;;;;;;;4.27;2.73;;;32.40;26.30;;;;;;5052322;28;20437;-66
2022/11/15 10:46:50;;;;;;;5.50;3.23;;;32.80;28.80;;;;;;5052438;28;20440;-66
2022/11/15 10:49:19;;;;;;;3.80;2.30;;;33.10;24.60;;;;;;5052397;28;20882;-66
2022/11/15 10:51:49;;;;;;;3.87;2.17;;;;;;;;;;5052096;28;20433;-67
2022/11/15 10:54:28;;;;;;;3.87;2.90;;;33.70;22.60;;;;;;5052421;28;20476;-67
2022/11/15 10:56:58;;;;;;;3.97;2.50;;;33.90;19.30;;;;;;5050683;28;20441;-67
2022/11/15 10:59:34;;;;;;;3.63;2.53;;;34.20;18.50;;;;;;5050618;28;20544;-66
2022/11/15 11:02:02;;;;;;;3.53;2.17;;;34.40;19.60;;;;;;5051394;28;20466;-67
2022/11/15 11:04:29;;;;;;;5.07;2.20;;;34.40;17.90;;;;;;5051256;28;20512;-66
2022/11/15 11:06:58;;;;;;;7.03;2.57;;;34.50;18.40;;;;;;5051384;28;20440;-67
2022/11/15 11:09:32;;;;;;;3.27;2.07;;;34.90;18.70;;;;;;5049806;28;20436;-67
2022/11/15 11:12:00;;;;;;;5.33;2.60;;;35.30;18.00;;;;;;5051384;28;20484;-66
2022/11/15 11:14:31;;;;;;;4.63;2.30;;;35.50;17.90;;;;;;5051972;28;20468;-66
2022/11/15 11:17:06;;;;;;;3.27;2.10;;;35.50;17.00;;;;;;5051110;28;20884;-66
2022/11/15 11:19:47;;;;;;;3.17;2.00;;;35.50;17.80;;;;;;5051541;28;21009;-67
2022/11/15 11:22:23;;;;;;;5.87;1.90;;;35.60;17.40;;;;;;5053433;28;20448;-66
2022/11/15 11:25:04;;;;;;;4.23;2.30;;;35.90;17.30;;;;;;5047643;28;20458;-67
2022/11/15 11:27:41;;;;;;;18.93;2.90;;;35.70;17.00;;;;;;5051077;28;20421;-67
2022/11/15 11:30:13;;;;;;;3.93;2.67;;;35.60;17.10;;;;;;5052102;28;20601;-66
2022/11/15 11:33:12;;;;;;;3.57;2.30;;;35.70;17.50;;;;;;5051763;28;20499;-67
2022/11/15 11:35:47;;;;;;;5.07;2.50;;;35.40;17.10;;;;;;4997184;28;20449;-66
2022/11/15 11:38:33;;;;;;;5.90;3.07;;;34.90;17.30;;;;;;5051112;28;20491;-67
2022/11/15 11:41:10;;;;;;;4.10;2.60;;;34.70;17.00;;;;;;5051589;28;20436;-66
2022/11/15 11:43:47;;;;;;;2.90;2.10;;;34.80;17.10;;;;;;5052817;28;20450;-71
2022/11/15 11:46:35;;;;;;;3.37;2.43;;;34.90;17.30;;;;;;5052540;28;20950;-71
2022/11/15 11:49:09;;;;;;;3.27;2.10;;;34.70;17.20;;;;;;5052185;28;20475;-70
2022/11/15 11:51:41;;;;;;;2.97;2.03;;;34.60;16.60;;;;;;5052838;28;20579;-66
2022/11/15 11:54:14;;;;;;;3.40;2.00;;;34.40;17.50;;;;;;5052361;28;20429;-66
2022/11/15 11:56:44;;;;;;;3.87;2.27;;;33.90;17.50;;;;;;5052705;28;20443;-66
2022/11/15 11:59:22;;;;;;;4.10;2.33;;;33.60;17.90;;;;;;5052847;28;20441;-66
2022/11/15 12:01:49;;;;;;;4.63;2.20;;;33.10;18.10;;;;;;5052772;28;20526;-66
2022/11/15 12:04:21;;;;;;;6.17;2.43;;;32.90;18.60;;;;;;5052603;28;20558;-66
2022/11/15 12:06:54;;;;;;;3.33;1.80;;;32.80;18.40;;;;;;5053090;28;20441;-66
2022/11/15 12:09:31;;;;;;;3.07;2.10;;;32.90;18.50;;;;;;5052435;28;20528;-67
2022/11/15 12:12:05;;;;;;;4.90;2.20;;;32.90;18.40;;;;;;5052365;28;20469;-66
2022/11/15 12:14:39;;;;;;;2.80;1.90;;;33.00;18.90;;;;;;5052492;28;20539;-66
2022/11/15 12:17:06;;;;;;;4.10;2.23;;;32.90;18.90;;;;;;5052525;28;20456;-66
2022/11/15 12:19:35;;;;;;;3.40;1.73;;;32.90;18.20;;;;;;5052595;28;20495;-66
2022/11/15 12:22:07;;;;;;;3.17;1.97;;;32.80;18.50;;;;;;5052353;28;20530;-66
2022/11/15 12:24:40;;;;;;;3.30;2.40;;;32.50;18.70;;;;;;5052473;28;20445;-66
2022/11/15 12:27:16;;;;;;;3.23;2.10;;;32.20;18.50;;;;;;5052455;28;20904;-66
2022/11/15 12:29:48;;;;;;;4.17;2.20;;;32.00;19.00;;;;;;5052404;28;20449;-66
2022/11/15 12:32:25;;;;;;;4.60;2.37;;;31.80;19.20;;;;;;5052486;28;20817;-66
2022/11/15 12:34:55;;;;;;;3.10;2.10;;;31.50;19.40;;;;;;5052467;28;20943;-66
2022/11/15 12:37:54;;;;;;;5.20;2.30;;;31.10;19.90;;;;;;5052505;28;20481;-67
2022/11/15 12:40:36;;;;;;;3.50;2.50;;;31.00;20.00;;;;;;5052243;28;20483;-67
2022/11/15 12:43:33;;;;;;;5.57;2.10;;;30.70;20.30;;;;;;5052292;28;20476;-69
2022/11/15 12:46:06;;;;;;;6.47;2.60;;;30.30;20.50;;;;;;5042409;28;20445;-66
2022/11/15 12:48:54;;;;;;;8.23;2.40;;;29.90;21.00;;;;;;5052471;28;20849;-66
2022/11/15 12:51:42;;;;;;;4.87;2.73;;;29.40;21.50;;;;;;5052121;28;20804;-66
2022/11/15 12:54:42;;;;;;;3.53;2.40;;;28.60;22.50;;;;;;5054976;28;20429;-66
2022/11/15 12:57:39;;;;;;;3.67;2.53;;;27.90;23.10;;;;;;5055770;28;21443;-66
2022/11/15 13:00:47;;;;;;;4.10;2.63;;;27.60;23.40;;;;;;5055597;28;20449;-66
2022/11/15 13:03:24;;;;;;;2.97;1.97;;;27.10;24.10;;;;;;5055176;28;20560;-66
2022/11/15 13:06:06;;;;;;;3.10;1.87;;;26.70;24.80;;;;;;5055472;28;20516;-67
2022/11/15 13:08:48;;;;;;;4.50;1.90;;;26.20;25.10;;;;;;5055624;28;20496;-65
2022/11/15 13:11:47;;;;;;;3.00;2.20;;;25.80;25.50;;;;;;5055312;28;20524;-65
2022/11/15 13:14:50;;;;;;;4.73;2.33;;;25.30;26.00;;;;;;5055473;28;20522;-65
2022/11/15 13:17:45;;;;;;;3.20;2.13;;;24.60;26.50;;;;;;5055627;28;20433;-65
2022/11/15 13:20:29;;;;;;;2.83;1.60;;;24.30;27.00;;;;;;5055402;28;20437;-66
2022/11/15 13:23:03;;;;;;;3.00;1.73;;;23.90;26.50;;;;;;5055371;28;20915;-66
2022/11/15 13:26:07;;;;;;;4.63;1.90;;;23.50;27.30;;;;;;5055244;28;20468;-66
2022/11/15 13:28:38;;;;;;;4.20;2.40;;;22.90;27.60;;;;;;5055737;28;20444;-65
2022/11/15 13:31:20;;;;;;;3.67;2.10;;;22.30;28.40;;;;;;5055252;28;20516;-65